sensor_id;sensor_type;location;lat;lon;timestamp;pressure;altitude;pressure_sealevel;temperature;humidity
47082;BME280;33066;49.296;14.470;2023-04-25T00:00:06;96244.60;;;14.89;33.05
47082;BME280;33066;49.296;14.470;2023-04-25T00:02:31;96243.75;;;14.68;33.12
47082;BME280;33066;49.296;14.470;2023-04-25T00:04:55;96244.76;;;14.85;32.96
47082;BME280;33066;49.296;14.470;2023-04-25T00:07:21;96248.83;;;14.77;33.15
47082;BME280;33066;49.296;14.470;2023-04-25T00:09:46;96251.10;;;14.81;33.18
47082;BME280;33066;49.296;14.470;2023-04-25T00:12:13;96247.34;;;14.50;33.21
47082;BME280;33066;49.296;14.470;2023-04-25T00:14:37;96244.32;;;14.67;33.28
47082;BME280;33066;49.296;14.470;2023-04-25T00:17:03;96245.10;;;14.76;33.15
47082;BME280;33066;49.296;14.470;2023-04-25T00:19:28;96241.18;;;14.83;33.27
47082;BME280;33066;49.296;14.470;2023-04-25T00:21:53;96243.30;;;14.81;33.16
47082;BME280;33066;49.296;14.470;2023-04-25T00:24:19;96240.81;;;14.60;33.21
47082;BME280;33066;49.296;14.470;2023-04-25T00:26:45;96238.97;;;14.71;33.21
47082;BME280;33066;49.296;14.470;2023-04-25T00:29:09;96238.97;;;14.92;33.11
47082;BME280;33066;49.296;14.470;2023-04-25T00:31:34;96239.85;;;14.49;33.29
47082;BME280;33066;49.296;14.470;2023-04-25T00:34:01;96238.26;;;14.74;33.12
47082;BME280;33066;49.296;14.470;2023-04-25T00:36:25;96237.59;;;14.93;33.01
47082;BME280;33066;49.296;14.470;2023-04-25T00:38:50;96237.49;;;14.93;33.39
47082;BME280;33066;49.296;14.470;2023-04-25T00:41:16;96238.49;;;14.79;33.47
47082;BME280;33066;49.296;14.470;2023-04-25T00:43:41;96232.45;;;15.12;33.27
47082;BME280;33066;49.296;14.470;2023-04-25T00:46:07;96230.36;;;15.14;33.14
47082;BME280;33066;49.296;14.470;2023-04-25T00:48:32;96227.96;;;15.18;32.98
47082;BME280;33066;49.296;14.470;2023-04-25T00:50:58;96222.75;;;14.95;32.82
47082;BME280;33066;49.296;14.470;2023-04-25T00:53:24;96213.91;;;14.73;32.87
47082;BME280;33066;49.296;14.470;2023-04-25T00:55:48;96216.08;;;15.16;32.70
47082;BME280;33066;49.296;14.470;2023-04-25T00:58:14;96219.41;;;14.75;32.90
47082;BME280;33066;49.296;14.470;2023-04-25T01:00:39;96215.08;;;14.39;33.02
47082;BME280;33066;49.296;14.470;2023-04-25T01:03:04;96211.18;;;14.72;33.16
47082;BME280;33066;49.296;14.470;2023-04-25T01:05:30;96210.43;;;14.61;33.31
47082;BME280;33066;49.296;14.470;2023-04-25T01:07:55;96207.43;;;14.61;33.27
47082;BME280;33066;49.296;14.470;2023-04-25T01:10:20;96205.34;;;14.33;33.42
47082;BME280;33066;49.296;14.470;2023-04-25T01:12:47;96203.42;;;14.59;33.42
47082;BME280;33066;49.296;14.470;2023-04-25T01:15:11;96209.63;;;13.85;33.42
47082;BME280;33066;49.296;14.470;2023-04-25T01:17:38;96210.41;;;14.66;33.02
47082;BME280;33066;49.296;14.470;2023-04-25T01:20:03;96217.14;;;14.83;33.11
47082;BME280;33066;49.296;14.470;2023-04-25T01:22:26;96218.91;;;14.91;33.30
47082;BME280;33066;49.296;14.470;2023-04-25T01:24:52;96215.91;;;14.84;33.32
47082;BME280;33066;49.296;14.470;2023-04-25T01:27:18;96212.99;;;14.74;33.41
47082;BME280;33066;49.296;14.470;2023-04-25T01:29:42;96215.87;;;14.71;33.62
47082;BME280;33066;49.296;14.470;2023-04-25T01:32:08;96217.42;;;14.61;34.02
47082;BME280;33066;49.296;14.470;2023-04-25T01:34:33;96220.30;;;14.52;34.38
47082;BME280;33066;49.296;14.470;2023-04-25T01:36:59;96218.34;;;14.57;34.75
47082;BME280;33066;49.296;14.470;2023-04-25T01:39:23;96219.35;;;14.22;34.94
47082;BME280;33066;49.296;14.470;2023-04-25T01:41:49;96216.43;;;14.38;35.03
47082;BME280;33066;49.296;14.470;2023-04-25T01:44:14;96219.70;;;14.23;35.23
47082;BME280;33066;49.296;14.470;2023-04-25T01:46:42;96212.88;;;13.90;35.33
47082;BME280;33066;49.296;14.470;2023-04-25T01:49:05;96209.21;;;14.01;35.42
47082;BME280;33066;49.296;14.470;2023-04-25T01:51:32;96209.81;;;14.14;35.62
47082;BME280;33066;49.296;14.470;2023-04-25T01:53:57;96211.82;;;13.87;35.82
47082;BME280;33066;49.296;14.470;2023-04-25T01:56:22;96211.96;;;13.84;35.86
47082;BME280;33066;49.296;14.470;2023-04-25T01:58:47;96216.75;;;13.82;35.92
47082;BME280;33066;49.296;14.470;2023-04-25T02:01:12;96220.01;;;13.66;36.13
47082;BME280;33066;49.296;14.470;2023-04-25T02:03:40;96217.44;;;13.81;36.22
47082;BME280;33066;49.296;14.470;2023-04-25T02:06:03;96218.27;;;13.80;36.19
47082;BME280;33066;49.296;14.470;2023-04-25T02:08:29;96218.09;;;13.61;35.96
47082;BME280;33066;49.296;14.470;2023-04-25T02:10:54;96212.34;;;13.77;35.62
47082;BME280;33066;49.296;14.470;2023-04-25T02:13:19;96213.65;;;13.53;35.53
47082;BME280;33066;49.296;14.470;2023-04-25T02:15:44;96215.23;;;13.52;35.36
47082;BME280;33066;49.296;14.470;2023-04-25T02:18:10;96215.86;;;13.50;35.40
47082;BME280;33066;49.296;14.470;2023-04-25T02:20:35;96216.41;;;13.53;35.45
47082;BME280;33066;49.296;14.470;2023-04-25T02:23:00;96215.15;;;13.33;35.32
47082;BME280;33066;49.296;14.470;2023-04-25T02:25:26;96214.76;;;13.44;35.30
47082;BME280;33066;49.296;14.470;2023-04-25T02:27:51;96212.53;;;13.62;35.28
47082;BME280;33066;49.296;14.470;2023-04-25T02:30:16;96208.40;;;13.35;35.47
47082;BME280;33066;49.296;14.470;2023-04-25T02:32:42;96203.02;;;13.29;35.52
47082;BME280;33066;49.296;14.470;2023-04-25T02:35:08;96200.59;;;13.54;35.64
47082;BME280;33066;49.296;14.470;2023-04-25T02:37:33;96198.95;;;13.14;35.68
47082;BME280;33066;49.296;14.470;2023-04-25T02:39:58;96199.18;;;13.48;35.85
47082;BME280;33066;49.296;14.470;2023-04-25T02:42:23;96199.88;;;13.14;35.73
47082;BME280;33066;49.296;14.470;2023-04-25T02:44:49;96200.20;;;13.12;35.83
47082;BME280;33066;49.296;14.470;2023-04-25T02:47:14;96199.41;;;13.06;35.94
47082;BME280;33066;49.296;14.470;2023-04-25T02:49:40;96196.31;;;13.07;36.04
47082;BME280;33066;49.296;14.470;2023-04-25T02:52:05;96197.06;;;13.33;35.94
47082;BME280;33066;49.296;14.470;2023-04-25T02:54:31;96195.80;;;13.45;35.83
47082;BME280;33066;49.296;14.470;2023-04-25T02:56:55;96194.36;;;13.24;35.70
47082;BME280;33066;49.296;14.470;2023-04-25T02:59:21;96186.24;;;13.16;35.67
47082;BME280;33066;49.296;14.470;2023-04-25T03:01:46;96183.25;;;13.21;35.80
47082;BME280;33066;49.296;14.470;2023-04-25T03:04:12;96180.64;;;13.16;35.62
47082;BME280;33066;49.296;14.470;2023-04-25T03:06:38;96175.48;;;12.96;35.74
47082;BME280;33066;49.296;14.470;2023-04-25T03:09:03;96170.41;;;13.10;36.00
47082;BME280;33066;49.296;14.470;2023-04-25T03:12:59;96171.86;;;13.07;35.78
47082;BME280;33066;49.296;14.470;2023-04-25T03:15:25;96172.11;;;13.01;35.98
47082;BME280;33066;49.296;14.470;2023-04-25T03:17:51;96171.53;;;12.94;36.03
47082;BME280;33066;49.296;14.470;2023-04-25T03:20:17;96166.12;;;12.85;36.14
47082;BME280;33066;49.296;14.470;2023-04-25T03:22:43;96163.32;;;12.86;36.21
47082;BME280;33066;49.296;14.470;2023-04-25T03:25:08;96162.29;;;12.86;36.02
47082;BME280;33066;49.296;14.470;2023-04-25T03:27:33;96162.21;;;12.84;36.10
47082;BME280;33066;49.296;14.470;2023-04-25T03:30:00;96162.20;;;12.74;36.15
47082;BME280;33066;49.296;14.470;2023-04-25T03:32:24;96158.41;;;12.79;36.06
47082;BME280;33066;49.296;14.470;2023-04-25T03:34:49;96157.47;;;13.11;35.97
47082;BME280;33066;49.296;14.470;2023-04-25T03:37:15;96158.73;;;12.80;36.01
47082;BME280;33066;49.296;14.470;2023-04-25T03:39:41;96159.43;;;12.79;36.13
47082;BME280;33066;49.296;14.470;2023-04-25T03:42:08;96158.98;;;13.27;36.18
47082;BME280;33066;49.296;14.470;2023-04-25T03:44:31;96159.27;;;12.77;36.24
47082;BME280;33066;49.296;14.470;2023-04-25T03:46:57;96160.85;;;13.26;36.22
47082;BME280;33066;49.296;14.470;2023-04-25T03:49:22;96159.71;;;12.90;36.48
47082;BME280;33066;49.296;14.470;2023-04-25T03:51:48;96161.94;;;12.69;36.53
47082;BME280;33066;49.296;14.470;2023-04-25T03:54:14;96161.92;;;12.75;36.54
47082;BME280;33066;49.296;14.470;2023-04-25T03:56:40;96164.33;;;12.81;36.35
47082;BME280;33066;49.296;14.470;2023-04-25T03:59:05;96164.50;;;13.04;36.49
47082;BME280;33066;49.296;14.470;2023-04-25T04:01:31;96165.79;;;12.74;36.55
47082;BME280;33066;49.296;14.470;2023-04-25T04:03:57;96166.13;;;12.59;36.82
47082;BME280;33066;49.296;14.470;2023-04-25T04:06:21;96168.77;;;12.99;37.26
47082;BME280;33066;49.296;14.470;2023-04-25T04:08:48;96170.68;;;12.48;37.02
47082;BME280;33066;49.296;14.470;2023-04-25T04:11:11;96170.58;;;12.64;37.18
47082;BME280;33066;49.296;14.470;2023-04-25T04:13:37;96168.84;;;12.31;37.16
47082;BME280;33066;49.296;14.470;2023-04-25T04:16:03;96168.53;;;12.56;37.19
47082;BME280;33066;49.296;14.470;2023-04-25T04:18:27;96169.25;;;12.88;37.18
47082;BME280;33066;49.296;14.470;2023-04-25T04:20:53;96165.46;;;12.68;37.29
47082;BME280;33066;49.296;14.470;2023-04-25T04:23:19;96161.71;;;12.83;37.11
47082;BME280;33066;49.296;14.470;2023-04-25T04:25:43;96161.67;;;12.76;37.17
47082;BME280;33066;49.296;14.470;2023-04-25T04:28:09;96166.67;;;12.66;37.17
47082;BME280;33066;49.296;14.470;2023-04-25T04:30:34;96167.81;;;12.94;37.29
47082;BME280;33066;49.296;14.470;2023-04-25T04:32:59;96170.74;;;12.64;37.05
47082;BME280;33066;49.296;14.470;2023-04-25T04:35:25;96170.58;;;13.26;36.76
47082;BME280;33066;49.296;14.470;2023-04-25T04:37:50;96172.51;;;13.42;36.71
47082;BME280;33066;49.296;14.470;2023-04-25T04:40:17;96173.48;;;13.10;36.58
47082;BME280;33066;49.296;14.470;2023-04-25T04:42:41;96172.77;;;13.25;36.72
47082;BME280;33066;49.296;14.470;2023-04-25T04:45:08;96170.72;;;13.31;36.19
47082;BME280;33066;49.296;14.470;2023-04-25T04:47:33;96174.23;;;13.29;36.44
47082;BME280;33066;49.296;14.470;2023-04-25T04:49:58;96175.00;;;13.33;36.78
47082;BME280;33066;49.296;14.470;2023-04-25T04:52:24;96172.93;;;13.42;36.23
47082;BME280;33066;49.296;14.470;2023-04-25T04:54:49;96172.84;;;13.36;36.33
47082;BME280;33066;49.296;14.470;2023-04-25T04:57:14;96171.28;;;13.34;36.48
47082;BME280;33066;49.296;14.470;2023-04-25T04:59:40;96173.23;;;13.30;36.95
47082;BME280;33066;49.296;14.470;2023-04-25T05:02:07;96175.41;;;13.27;36.56
47082;BME280;33066;49.296;14.470;2023-04-25T05:04:31;96174.09;;;13.01;36.42
47082;BME280;33066;49.296;14.470;2023-04-25T05:06:56;96173.19;;;13.33;36.32
47082;BME280;33066;49.296;14.470;2023-04-25T05:09:22;96174.49;;;13.48;36.08
47082;BME280;33066;49.296;14.470;2023-04-25T05:11:47;96168.68;;;13.69;35.74
47082;BME280;33066;49.296;14.470;2023-04-25T05:14:13;96170.13;;;13.60;35.79
47082;BME280;33066;49.296;14.470;2023-04-25T05:16:40;96169.38;;;13.90;35.75
47082;BME280;33066;49.296;14.470;2023-04-25T05:19:03;96168.56;;;13.78;35.81
47082;BME280;33066;49.296;14.470;2023-04-25T05:21:28;96165.15;;;13.86;35.75
47082;BME280;33066;49.296;14.470;2023-04-25T05:23:54;96165.17;;;13.70;35.48
47082;BME280;33066;49.296;14.470;2023-04-25T05:26:19;96165.44;;;14.23;35.77
47082;BME280;33066;49.296;14.470;2023-04-25T05:28:45;96163.12;;;13.72;35.95
47082;BME280;33066;49.296;14.470;2023-04-25T05:31:10;96164.64;;;13.82;35.94
47082;BME280;33066;49.296;14.470;2023-04-25T05:33:35;96162.37;;;14.07;35.80
47082;BME280;33066;49.296;14.470;2023-04-25T05:36:00;96160.29;;;14.42;35.94
47082;BME280;33066;49.296;14.470;2023-04-25T05:38:26;96158.56;;;14.04;35.79
47082;BME280;33066;49.296;14.470;2023-04-25T05:40:52;96155.46;;;14.37;35.73
47082;BME280;33066;49.296;14.470;2023-04-25T05:43:18;96153.99;;;14.28;35.63
47082;BME280;33066;49.296;14.470;2023-04-25T05:45:43;96152.77;;;14.58;35.49
47082;BME280;33066;49.296;14.470;2023-04-25T05:48:08;96150.35;;;14.41;35.34
47082;BME280;33066;49.296;14.470;2023-04-25T05:50:33;96151.60;;;14.69;35.17
47082;BME280;33066;49.296;14.470;2023-04-25T05:52:59;96148.83;;;14.43;34.99
47082;BME280;33066;49.296;14.470;2023-04-25T05:55:24;96148.34;;;14.33;34.94
47082;BME280;33066;49.296;14.470;2023-04-25T05:57:50;96148.64;;;14.41;34.91
47082;BME280;33066;49.296;14.470;2023-04-25T06:00:16;96145.69;;;14.68;34.60
47082;BME280;33066;49.296;14.470;2023-04-25T06:02:41;96141.94;;;14.56;34.53
47082;BME280;33066;49.296;14.470;2023-04-25T06:05:07;96142.82;;;15.07;34.39
47082;BME280;33066;49.296;14.470;2023-04-25T06:07:32;96150.09;;;14.82;34.37
47082;BME280;33066;49.296;14.470;2023-04-25T06:09:58;96152.22;;;14.78;34.59
47082;BME280;33066;49.296;14.470;2023-04-25T06:12:23;96156.57;;;14.87;34.57
47082;BME280;33066;49.296;14.470;2023-04-25T06:14:49;96154.15;;;14.89;34.34
47082;BME280;33066;49.296;14.470;2023-04-25T06:17:14;96157.86;;;15.04;34.32
47082;BME280;33066;49.296;14.470;2023-04-25T06:19:39;96154.72;;;14.91;33.95
47082;BME280;33066;49.296;14.470;2023-04-25T06:22:05;96154.97;;;15.05;34.28
47082;BME280;33066;49.296;14.470;2023-04-25T06:24:30;96155.20;;;15.30;33.73
47082;BME280;33066;49.296;14.470;2023-04-25T06:26:55;96156.11;;;15.03;33.94
47082;BME280;33066;49.296;14.470;2023-04-25T06:29:21;96153.83;;;15.18;34.05
47082;BME280;33066;49.296;14.470;2023-04-25T06:31:46;96150.42;;;15.05;34.14
47082;BME280;33066;49.296;14.470;2023-04-25T06:34:11;96147.60;;;15.07;33.90
47082;BME280;33066;49.296;14.470;2023-04-25T06:36:37;96148.50;;;15.23;33.81
47082;BME280;33066;49.296;14.470;2023-04-25T06:39:02;96149.95;;;15.26;33.57
47082;BME280;33066;49.296;14.470;2023-04-25T06:41:27;96149.76;;;15.27;33.44
47082;BME280;33066;49.296;14.470;2023-04-25T06:43:53;96146.69;;;15.35;33.62
47082;BME280;33066;49.296;14.470;2023-04-25T06:46:18;96143.70;;;15.66;33.35
47082;BME280;33066;49.296;14.470;2023-04-25T06:48:44;96141.44;;;15.38;33.41
47082;BME280;33066;49.296;14.470;2023-04-25T06:51:10;96143.26;;;15.32;33.13
47082;BME280;33066;49.296;14.470;2023-04-25T06:53:36;96138.93;;;15.43;33.17
47082;BME280;33066;49.296;14.470;2023-04-25T06:56:01;96138.55;;;15.78;33.00
47082;BME280;33066;49.296;14.470;2023-04-25T06:58:27;96141.87;;;15.74;33.03
47082;BME280;33066;49.296;14.470;2023-04-25T07:00:52;96139.92;;;15.84;33.03
47082;BME280;33066;49.296;14.470;2023-04-25T07:03:17;96138.44;;;15.90;32.69
47082;BME280;33066;49.296;14.470;2023-04-25T07:05:42;96135.72;;;15.80;32.70
47082;BME280;33066;49.296;14.470;2023-04-25T07:08:07;96135.23;;;15.68;32.73
47082;BME280;33066;49.296;14.470;2023-04-25T07:10:33;96130.86;;;15.60;33.01
47082;BME280;33066;49.296;14.470;2023-04-25T07:12:58;96130.16;;;15.82;32.94
47082;BME280;33066;49.296;14.470;2023-04-25T07:15:24;96131.83;;;16.01;32.89
47082;BME280;33066;49.296;14.470;2023-04-25T07:17:49;96124.83;;;16.05;32.69
47082;BME280;33066;49.296;14.470;2023-04-25T07:20:14;96117.77;;;15.84;32.61
47082;BME280;33066;49.296;14.470;2023-04-25T07:22:40;96118.60;;;15.72;32.43
47082;BME280;33066;49.296;14.470;2023-04-25T07:25:06;96120.07;;;15.77;32.82
47082;BME280;33066;49.296;14.470;2023-04-25T07:27:31;96119.03;;;15.78;32.63
47082;BME280;33066;49.296;14.470;2023-04-25T07:29:56;96116.12;;;16.29;32.71
47082;BME280;33066;49.296;14.470;2023-04-25T07:32:22;96115.37;;;16.10;32.80
47082;BME280;33066;49.296;14.470;2023-04-25T07:34:48;96113.31;;;16.14;32.96
47082;BME280;33066;49.296;14.470;2023-04-25T07:37:13;96110.33;;;16.07;32.60
47082;BME280;33066;49.296;14.470;2023-04-25T07:39:38;96109.88;;;16.27;32.69
47082;BME280;33066;49.296;14.470;2023-04-25T07:42:03;96106.82;;;15.90;32.49
47082;BME280;33066;49.296;14.470;2023-04-25T07:44:28;96107.39;;;15.97;32.69
47082;BME280;33066;49.296;14.470;2023-04-25T07:46:53;96103.74;;;16.03;32.30
47082;BME280;33066;49.296;14.470;2023-04-25T07:49:19;96103.76;;;16.34;32.01
47082;BME280;33066;49.296;14.470;2023-04-25T07:51:44;96098.48;;;16.22;31.94
47082;BME280;33066;49.296;14.470;2023-04-25T07:54:10;96099.87;;;16.59;31.83
47082;BME280;33066;49.296;14.470;2023-04-25T07:56:35;96099.29;;;16.85;31.50
47082;BME280;33066;49.296;14.470;2023-04-25T07:59:00;96096.65;;;17.03;31.62
47082;BME280;33066;49.296;14.470;2023-04-25T08:01:25;96099.14;;;16.67;30.98
47082;BME280;33066;49.296;14.470;2023-04-25T08:03:50;96106.41;;;16.49;31.13
47082;BME280;33066;49.296;14.470;2023-04-25T08:06:15;96102.45;;;16.16;31.52
47082;BME280;33066;49.296;14.470;2023-04-25T08:08:41;96109.48;;;15.83;31.79
47082;BME280;33066;49.296;14.470;2023-04-25T08:11:26;96106.37;;;15.72;32.16
47082;BME280;33066;49.296;14.470;2023-04-25T08:13:42;96109.68;;;15.82;32.73
47082;BME280;33066;49.296;14.470;2023-04-25T08:16:07;96110.47;;;15.92;32.87
47082;BME280;33066;49.296;14.470;2023-04-25T08:18:32;96103.20;;;16.25;32.99
47082;BME280;33066;49.296;14.470;2023-04-25T08:20:58;96102.03;;;16.32;32.35
47082;BME280;33066;49.296;14.470;2023-04-25T08:23:13;96100.53;;;16.60;32.21
47082;BME280;33066;49.296;14.470;2023-04-25T08:25:39;96103.74;;;16.56;31.56
47082;BME280;33066;49.296;14.470;2023-04-25T08:28:06;96102.20;;;16.28;31.48
47082;BME280;33066;49.296;14.470;2023-04-25T08:30:31;96101.84;;;16.43;31.50
47082;BME280;33066;49.296;14.470;2023-04-25T08:32:56;96097.27;;;16.51;31.90
47082;BME280;33066;49.296;14.470;2023-04-25T08:35:21;96097.63;;;16.78;32.19
47082;BME280;33066;49.296;14.470;2023-04-25T08:37:47;96096.07;;;16.47;32.23
47082;BME280;33066;49.296;14.470;2023-04-25T08:40:13;96099.44;;;16.92;31.26
47082;BME280;33066;49.296;14.470;2023-04-25T08:42:37;96099.38;;;16.97;31.02
47082;BME280;33066;49.296;14.470;2023-04-25T08:45:02;96099.02;;;17.16;30.75
47082;BME280;33066;49.296;14.470;2023-04-25T08:47:30;96094.32;;;16.93;31.00
47082;BME280;33066;49.296;14.470;2023-04-25T08:49:53;96090.50;;;16.63;31.14
47082;BME280;33066;49.296;14.470;2023-04-25T08:52:21;96095.62;;;16.38;31.15
47082;BME280;33066;49.296;14.470;2023-04-25T08:54:47;96099.06;;;16.29;31.87
47082;BME280;33066;49.296;14.470;2023-04-25T08:57:10;96101.69;;;16.35;32.00
47082;BME280;33066;49.296;14.470;2023-04-25T08:59:35;96102.80;;;16.01;32.88
47082;BME280;33066;49.296;14.470;2023-04-25T09:02:01;96104.80;;;16.23;33.71
47082;BME280;33066;49.296;14.470;2023-04-25T09:04:26;96109.23;;;16.43;35.21
47082;BME280;33066;49.296;14.470;2023-04-25T09:06:50;96108.43;;;16.59;34.30
47082;BME280;33066;49.296;14.470;2023-04-25T09:09:17;96105.25;;;16.57;35.05
47082;BME280;33066;49.296;14.470;2023-04-25T09:11:41;96104.42;;;16.42;33.32
47082;BME280;33066;49.296;14.470;2023-04-25T09:14:12;96102.71;;;16.76;32.80
47082;BME280;33066;49.296;14.470;2023-04-25T09:16:34;96103.88;;;16.72;32.80
47082;BME280;33066;49.296;14.470;2023-04-25T09:18:58;96100.43;;;16.87;30.82
47082;BME280;33066;49.296;14.470;2023-04-25T09:21:25;96098.64;;;16.67;30.66
47082;BME280;33066;49.296;14.470;2023-04-25T09:23:49;96097.58;;;16.83;30.86
47082;BME280;33066;49.296;14.470;2023-04-25T09:26:17;96100.07;;;16.41;30.22
47082;BME280;33066;49.296;14.470;2023-04-25T09:28:42;96097.47;;;16.67;30.11
47082;BME280;33066;49.296;14.470;2023-04-25T09:31:10;96097.65;;;16.68;29.84
47082;BME280;33066;49.296;14.470;2023-04-25T09:33:33;96095.54;;;16.60;30.12
47082;BME280;33066;49.296;14.470;2023-04-25T09:36:03;96093.25;;;16.71;29.85
47082;BME280;33066;49.296;14.470;2023-04-25T09:38:22;96092.09;;;16.83;30.15
47082;BME280;33066;49.296;14.470;2023-04-25T09:40:47;96087.75;;;17.28;29.06
47082;BME280;33066;49.296;14.470;2023-04-25T09:43:18;96091.96;;;17.21;29.07
47082;BME280;33066;49.296;14.470;2023-04-25T09:45:43;96089.43;;;17.43;28.14
47082;BME280;33066;49.296;14.470;2023-04-25T09:48:04;96088.31;;;17.73;28.39
47082;BME280;33066;49.296;14.470;2023-04-25T09:50:28;96078.71;;;17.82;28.08
47082;BME280;33066;49.296;14.470;2023-04-25T09:53:03;96074.37;;;17.70;27.18
47082;BME280;33066;49.296;14.470;2023-04-25T09:55:18;96076.72;;;17.88;26.54
47082;BME280;33066;49.296;14.470;2023-04-25T09:57:47;96067.23;;;18.79;26.72
47082;BME280;33066;49.296;14.470;2023-04-25T10:00:11;96067.42;;;17.98;26.69
47082;BME280;33066;49.296;14.470;2023-04-25T10:02:35;96078.91;;;17.96;27.12
47082;BME280;33066;49.296;14.470;2023-04-25T10:05:05;96075.52;;;18.14;27.11
47082;BME280;33066;49.296;14.470;2023-04-25T10:07:30;96077.90;;;18.23;27.65
47082;BME280;33066;49.296;14.470;2023-04-25T10:09:58;96074.11;;;18.02;27.69
47082;BME280;33066;49.296;14.470;2023-04-25T10:12:16;96082.60;;;18.05;28.25
47082;BME280;33066;49.296;14.470;2023-04-25T10:14:43;96083.43;;;18.01;28.07
47082;BME280;33066;49.296;14.470;2023-04-25T10:17:11;96084.36;;;17.89;27.33
47082;BME280;33066;49.296;14.470;2023-04-25T10:19:32;96085.54;;;18.01;27.80
47082;BME280;33066;49.296;14.470;2023-04-25T10:22:04;96090.47;;;17.70;27.92
47082;BME280;33066;49.296;14.470;2023-04-25T10:24:24;96084.56;;;17.74;27.93
47082;BME280;33066;49.296;14.470;2023-04-25T10:26:49;96085.65;;;17.66;28.12
47082;BME280;33066;49.296;14.470;2023-04-25T10:29:22;96106.92;;;17.75;27.87
47082;BME280;33066;49.296;14.470;2023-04-25T10:31:46;96084.82;;;18.06;28.11
47082;BME280;33066;49.296;14.470;2023-04-25T10:34:03;96084.29;;;18.50;27.38
47082;BME280;33066;49.296;14.470;2023-04-25T10:36:32;96083.94;;;18.19;27.06
47082;BME280;33066;49.296;14.470;2023-04-25T10:38:54;96080.57;;;17.94;26.84
47082;BME280;33066;49.296;14.470;2023-04-25T10:41:21;96088.57;;;17.92;27.37
47082;BME280;33066;49.296;14.470;2023-04-25T10:43:44;96088.64;;;18.24;26.54
47082;BME280;33066;49.296;14.470;2023-04-25T10:46:17;96090.69;;;18.22;27.01
47082;BME280;33066;49.296;14.470;2023-04-25T10:48:34;96087.87;;;18.76;25.86
47082;BME280;33066;49.296;14.470;2023-04-25T10:51:08;96086.87;;;19.44;26.29
47082;BME280;33066;49.296;14.470;2023-04-25T10:53:24;96074.97;;;19.75;24.92
47082;BME280;33066;49.296;14.470;2023-04-25T10:55:51;96074.57;;;19.84;25.08
47082;BME280;33066;49.296;14.470;2023-04-25T10:58:21;96079.29;;;19.43;25.54
47082;BME280;33066;49.296;14.470;2023-04-25T11:00:40;96079.22;;;18.90;26.24
47082;BME280;33066;49.296;14.470;2023-04-25T11:03:06;96081.13;;;18.72;26.56
47082;BME280;33066;49.296;14.470;2023-04-25T11:05:33;96081.00;;;18.13;26.66
47082;BME280;33066;49.296;14.470;2023-04-25T11:07:58;96083.00;;;17.88;27.31
47082;BME280;33066;49.296;14.470;2023-04-25T11:10:25;96091.25;;;18.09;27.42
47082;BME280;33066;49.296;14.470;2023-04-25T11:12:48;96092.35;;;18.21;27.37
47082;BME280;33066;49.296;14.470;2023-04-25T11:15:13;96088.70;;;18.19;27.76
47082;BME280;33066;49.296;14.470;2023-04-25T11:17:39;96109.24;;;18.24;28.12
47082;BME280;33066;49.296;14.470;2023-04-25T11:20:03;96096.62;;;18.10;28.74
47082;BME280;33066;49.296;14.470;2023-04-25T11:22:27;96108.92;;;17.53;29.41
47082;BME280;33066;49.296;14.470;2023-04-25T11:24:53;96115.20;;;17.12;30.31
47082;BME280;33066;49.296;14.470;2023-04-25T11:27:18;96122.39;;;16.85;30.21
47082;BME280;33066;49.296;14.470;2023-04-25T11:29:44;96140.49;;;16.77;30.15
47082;BME280;33066;49.296;14.470;2023-04-25T11:32:09;96126.05;;;17.15;30.49
47082;BME280;33066;49.296;14.470;2023-04-25T11:34:34;96129.97;;;16.80;30.69
47082;BME280;33066;49.296;14.470;2023-04-25T11:37:01;96125.84;;;16.78;29.85
47082;BME280;33066;49.296;14.470;2023-04-25T11:39:26;96129.63;;;17.03;29.63
47082;BME280;33066;49.296;14.470;2023-04-25T11:41:50;96136.03;;;17.43;29.45
47082;BME280;33066;49.296;14.470;2023-04-25T11:44:16;96121.94;;;18.49;28.32
47082;BME280;33066;49.296;14.470;2023-04-25T11:46:40;96121.42;;;19.07;27.80
47082;BME280;33066;49.296;14.470;2023-04-25T11:49:05;96119.28;;;19.75;27.22
47082;BME280;33066;49.296;14.470;2023-04-25T11:51:30;96128.86;;;20.16;26.55
47082;BME280;33066;49.296;14.470;2023-04-25T11:53:57;96123.38;;;20.41;25.93
47082;BME280;33066;49.296;14.470;2023-04-25T11:56:21;96120.23;;;20.69;25.45
47082;BME280;33066;49.296;14.470;2023-04-25T11:58:56;96124.69;;;20.29;25.67
47082;BME280;33066;49.296;14.470;2023-04-25T12:01:11;96134.36;;;20.04;26.28
47082;BME280;33066;49.296;14.470;2023-04-25T12:03:45;96128.94;;;20.18;26.29
47082;BME280;33066;49.296;14.470;2023-04-25T12:06:02;96130.29;;;20.59;26.67
47082;BME280;33066;49.296;14.470;2023-04-25T12:08:27;96133.84;;;21.39;26.16
47082;BME280;33066;49.296;14.470;2023-04-25T12:10:53;96127.60;;;20.74;26.42
47082;BME280;33066;49.296;14.470;2023-04-25T12:13:20;96133.32;;;20.05;26.69
47082;BME280;33066;49.296;14.470;2023-04-25T12:15:44;96144.90;;;19.17;28.01
47082;BME280;33066;49.296;14.470;2023-04-25T12:18:07;96152.19;;;19.25;28.24
47082;BME280;33066;49.296;14.470;2023-04-25T12:20:33;96151.81;;;19.05;28.15
47082;BME280;33066;49.296;14.470;2023-04-25T12:22:58;96154.43;;;18.78;28.51
47082;BME280;33066;49.296;14.470;2023-04-25T12:25:34;96155.28;;;18.91;28.84
47082;BME280;33066;49.296;14.470;2023-04-25T12:27:49;96157.38;;;18.84;28.39
47082;BME280;33066;49.296;14.470;2023-04-25T12:30:13;96152.71;;;18.38;28.70
47082;BME280;33066;49.296;14.470;2023-04-25T12:32:40;96149.67;;;19.48;28.46
47082;BME280;33066;49.296;14.470;2023-04-25T12:35:05;96149.83;;;19.61;27.91
47082;BME280;33066;49.296;14.470;2023-04-25T12:37:29;96158.22;;;19.22;28.12
47082;BME280;33066;49.296;14.470;2023-04-25T12:39:55;96162.91;;;19.64;27.60